sensor_id;sensor_type;location;lat;lon;timestamp;P1;durP1;ratioP1;P2;durP2;ratioP2
16640;SDS011;8434;47.990;7.880;2023-07-28T00:02:31;3.93;;;2.40;;
16640;SDS011;8434;47.990;7.880;2023-07-28T00:05:17;2.90;;;2.10;;
16640;SDS011;8434;47.990;7.880;2023-07-28T00:08:02;3.93;;;2.60;;
16640;SDS011;8434;47.990;7.880;2023-07-28T00:10:48;2.63;;;2.27;;
16640;SDS011;8434;47.990;7.880;2023-07-28T00:13:33;2.23;;;2.03;;
16640;SDS011;8434;47.990;7.880;2023-07-28T00:16:20;3.90;;;2.40;;
16640;SDS011;8434;47.990;7.880;2023-07-28T00:19:05;3.17;;;2.30;;
16640;SDS011;8434;47.990;7.880;2023-07-28T00:21:51;2.40;;;2.20;;
16640;SDS011;8434;47.990;7.880;2023-07-28T00:24:36;4.07;;;2.43;;
16640;SDS011;8434;47.990;7.880;2023-07-28T00:27:22;3.40;;;2.40;;
16640;SDS011;8434;47.990;7.880;2023-07-28T00:30:08;3.27;;;2.53;;
16640;SDS011;8434;47.990;7.880;2023-07-28T00:32:55;2.30;;;2.10;;
16640;SDS011;8434;47.990;7.880;2023-07-28T00:35:40;2.63;;;2.43;;
16640;SDS011;8434;47.990;7.880;2023-07-28T00:38:26;3.27;;;2.77;;
16640;SDS011;8434;47.990;7.880;2023-07-28T00:41:14;2.97;;;2.70;;
16640;SDS011;8434;47.990;7.880;2023-07-28T00:43:59;5.97;;;2.60;;
16640;SDS011;8434;47.990;7.880;2023-07-28T00:46:45;4.20;;;2.93;;
16640;SDS011;8434;47.990;7.880;2023-07-28T00:49:32;4.57;;;2.30;;
16640;SDS011;8434;47.990;7.880;2023-07-28T00:52:17;3.33;;;2.30;;
16640;SDS011;8434;47.990;7.880;2023-07-28T00:55:03;2.47;;;2.20;;
16640;SDS011;8434;47.990;7.880;2023-07-28T00:57:49;3.27;;;2.63;;
16640;SDS011;8434;47.990;7.880;2023-07-28T01:00:35;2.87;;;2.43;;
16640;SDS011;8434;47.990;7.880;2023-07-28T01:03:20;3.60;;;2.47;;
16640;SDS011;8434;47.990;7.880;2023-07-28T01:06:11;3.50;;;2.50;;
16640;SDS011;8434;47.990;7.880;2023-07-28T01:09:00;2.70;;;2.50;;
16640;SDS011;8434;47.990;7.880;2023-07-28T01:11:53;3.23;;;2.70;;
16640;SDS011;8434;47.990;7.880;2023-07-28T01:14:39;3.97;;;2.50;;
16640;SDS011;8434;47.990;7.880;2023-07-28T01:17:24;2.67;;;2.30;;
16640;SDS011;8434;47.990;7.880;2023-07-28T01:20:10;25.00;;;4.10;;
16640;SDS011;8434;47.990;7.880;2023-07-28T01:23:02;5.40;;;2.40;;
16640;SDS011;8434;47.990;7.880;2023-07-28T01:25:55;3.67;;;2.50;;
16640;SDS011;8434;47.990;7.880;2023-07-28T01:28:42;3.37;;;2.53;;
16640;SDS011;8434;47.990;7.880;2023-07-28T01:31:28;2.97;;;2.30;;
16640;SDS011;8434;47.990;7.880;2023-07-28T01:34:13;2.97;;;2.60;;
16640;SDS011;8434;47.990;7.880;2023-07-28T01:36:59;3.80;;;2.40;;
16640;SDS011;8434;47.990;7.880;2023-07-28T01:39:44;4.20;;;2.47;;
16640;SDS011;8434;47.990;7.880;2023-07-28T01:42:29;3.03;;;2.23;;
16640;SDS011;8434;47.990;7.880;2023-07-28T01:45:16;3.43;;;2.60;;
16640;SDS011;8434;47.990;7.880;2023-07-28T01:48:01;5.17;;;2.47;;
16640;SDS011;8434;47.990;7.880;2023-07-28T01:50:47;5.30;;;2.43;;
16640;SDS011;8434;47.990;7.880;2023-07-28T01:53:32;5.20;;;2.47;;
16640;SDS011;8434;47.990;7.880;2023-07-28T01:56:18;3.10;;;2.30;;
16640;SDS011;8434;47.990;7.880;2023-07-28T01:59:03;3.07;;;2.40;;
16640;SDS011;8434;47.990;7.880;2023-07-28T02:01:50;3.30;;;2.50;;
16640;SDS011;8434;47.990;7.880;2023-07-28T02:04:36;5.50;;;2.50;;
16640;SDS011;8434;47.990;7.880;2023-07-28T02:07:21;4.17;;;2.40;;
16640;SDS011;8434;47.990;7.880;2023-07-28T02:10:07;5.10;;;2.77;;
16640;SDS011;8434;47.990;7.880;2023-07-28T02:12:53;3.70;;;2.40;;
16640;SDS011;8434;47.990;7.880;2023-07-28T02:15:39;2.93;;;2.53;;
16640;SDS011;8434;47.990;7.880;2023-07-28T02:18:26;3.50;;;2.47;;
16640;SDS011;8434;47.990;7.880;2023-07-28T02:21:11;4.03;;;2.03;;
16640;SDS011;8434;47.990;7.880;2023-07-28T02:23:57;2.83;;;2.50;;
16640;SDS011;8434;47.990;7.880;2023-07-28T02:26:42;4.87;;;2.67;;
16640;SDS011;8434;47.990;7.880;2023-07-28T02:29:28;2.67;;;2.47;;
16640;SDS011;8434;47.990;7.880;2023-07-28T02:32:13;3.23;;;2.40;;
16640;SDS011;8434;47.990;7.880;2023-07-28T02:35:00;2.93;;;2.30;;
16640;SDS011;8434;47.990;7.880;2023-07-28T02:37:46;4.37;;;2.57;;
16640;SDS011;8434;47.990;7.880;2023-07-28T02:40:32;4.97;;;2.40;;
16640;SDS011;8434;47.990;7.880;2023-07-28T02:43:17;3.53;;;2.57;;
16640;SDS011;8434;47.990;7.880;2023-07-28T02:46:03;3.03;;;2.67;;
16640;SDS011;8434;47.990;7.880;2023-07-28T02:48:48;2.83;;;2.40;;
16640;SDS011;8434;47.990;7.880;2023-07-28T02:51:35;4.60;;;2.63;;
16640;SDS011;8434;47.990;7.880;2023-07-28T02:54:20;4.33;;;2.30;;
16640;SDS011;8434;47.990;7.880;2023-07-28T02:57:07;3.60;;;2.27;;
16640;SDS011;8434;47.990;7.880;2023-07-28T02:59:53;3.57;;;2.80;;
16640;SDS011;8434;47.990;7.880;2023-07-28T03:02:38;3.67;;;2.80;;
16640;SDS011;8434;47.990;7.880;2023-07-28T03:05:24;3.07;;;2.80;;
16640;SDS011;8434;47.990;7.880;2023-07-28T03:08:30;2.90;;;2.70;;
16640;SDS011;8434;47.990;7.880;2023-07-28T03:11:32;3.77;;;2.90;;
16640;SDS011;8434;47.990;7.880;2023-07-28T03:14:17;3.23;;;2.93;;
16640;SDS011;8434;47.990;7.880;2023-07-28T03:17:03;3.87;;;2.63;;
16640;SDS011;8434;47.990;7.880;2023-07-28T03:19:49;2.67;;;2.40;;
16640;SDS011;8434;47.990;7.880;2023-07-28T03:22:34;3.47;;;2.90;;
16640;SDS011;8434;47.990;7.880;2023-07-28T03:25:21;4.13;;;2.93;;
16640;SDS011;8434;47.990;7.880;2023-07-28T03:28:07;3.63;;;2.90;;
16640;SDS011;8434;47.990;7.880;2023-07-28T03:30:52;4.00;;;3.03;;
16640;SDS011;8434;47.990;7.880;2023-07-28T03:33:38;4.63;;;2.30;;
16640;SDS011;8434;47.990;7.880;2023-07-28T03:36:23;2.70;;;2.50;;
16640;SDS011;8434;47.990;7.880;2023-07-28T03:39:08;2.73;;;2.50;;
16640;SDS011;8434;47.990;7.880;2023-07-28T03:41:55;4.17;;;2.80;;
16640;SDS011;8434;47.990;7.880;2023-07-28T03:44:41;3.27;;;2.97;;
16640;SDS011;8434;47.990;7.880;2023-07-28T03:47:27;4.70;;;3.13;;
16640;SDS011;8434;47.990;7.880;2023-07-28T03:50:12;3.07;;;2.77;;
16640;SDS011;8434;47.990;7.880;2023-07-28T03:52:58;12.77;;;3.03;;
16640;SDS011;8434;47.990;7.880;2023-07-28T03:55:43;2.83;;;2.43;;
16640;SDS011;8434;47.990;7.880;2023-07-28T03:58:30;4.93;;;2.90;;
16640;SDS011;8434;47.990;7.880;2023-07-28T04:01:16;2.77;;;2.57;;
16640;SDS011;8434;47.990;7.880;2023-07-28T04:04:02;3.27;;;2.97;;
16640;SDS011;8434;47.990;7.880;2023-07-28T04:06:49;4.00;;;2.73;;
16640;SDS011;8434;47.990;7.880;2023-07-28T04:09:34;5.90;;;2.70;;
16640;SDS011;8434;47.990;7.880;2023-07-28T04:12:20;3.30;;;2.93;;
16640;SDS011;8434;47.990;7.880;2023-07-28T04:15:08;7.00;;;2.93;;
16640;SDS011;8434;47.990;7.880;2023-07-28T04:17:53;5.90;;;3.07;;
16640;SDS011;8434;47.990;7.880;2023-07-28T04:20:38;4.10;;;2.87;;
16640;SDS011;8434;47.990;7.880;2023-07-28T04:23:24;5.50;;;2.63;;
16640;SDS011;8434;47.990;7.880;2023-07-28T04:26:09;4.30;;;3.33;;
16640;SDS011;8434;47.990;7.880;2023-07-28T04:28:56;3.10;;;2.73;;
16640;SDS011;8434;47.990;7.880;2023-07-28T04:31:43;3.80;;;3.40;;
16640;SDS011;8434;47.990;7.880;2023-07-28T04:34:32;2.97;;;2.67;;
16640;SDS011;8434;47.990;7.880;2023-07-28T04:37:20;4.50;;;3.07;;
16640;SDS011;8434;47.990;7.880;2023-07-28T04:40:24;3.27;;;2.90;;
16640;SDS011;8434;47.990;7.880;2023-07-28T04:43:10;4.90;;;2.67;;
16640;SDS011;8434;47.990;7.880;2023-07-28T04:45:56;3.13;;;2.80;;
16640;SDS011;8434;47.990;7.880;2023-07-28T04:48:45;5.23;;;3.10;;
16640;SDS011;8434;47.990;7.880;2023-07-28T04:51:49;2.83;;;2.50;;
16640;SDS011;8434;47.990;7.880;2023-07-28T04:55:00;2.83;;;1.97;;
16640;SDS011;8434;47.990;7.880;2023-07-28T04:57:46;2.40;;;2.20;;
16640;SDS011;8434;47.990;7.880;2023-07-28T05:00:31;2.03;;;1.80;;
16640;SDS011;8434;47.990;7.880;2023-07-28T05:03:17;2.83;;;1.80;;
16640;SDS011;8434;47.990;7.880;2023-07-28T05:06:10;4.03;;;1.80;;
16640;SDS011;8434;47.990;7.880;2023-07-28T05:08:56;2.23;;;1.80;;
16640;SDS011;8434;47.990;7.880;2023-07-28T05:11:50;2.20;;;1.43;;
16640;SDS011;8434;47.990;7.880;2023-07-28T05:14:36;1.90;;;1.57;;
16640;SDS011;8434;47.990;7.880;2023-07-28T05:17:21;4.43;;;1.80;;
16640;SDS011;8434;47.990;7.880;2023-07-28T05:20:25;2.33;;;1.90;;
16640;SDS011;8434;47.990;7.880;2023-07-28T05:23:18;3.07;;;2.13;;
16640;SDS011;8434;47.990;7.880;2023-07-28T05:26:03;2.13;;;1.70;;
16640;SDS011;8434;47.990;7.880;2023-07-28T05:28:49;2.38;;;1.50;;
16640;SDS011;8434;47.990;7.880;2023-07-28T05:31:38;2.33;;;1.60;;
16640;SDS011;8434;47.990;7.880;2023-07-28T05:34:33;2.35;;;1.23;;
16640;SDS011;8434;47.990;7.880;2023-07-28T05:37:18;3.90;;;1.95;;
16640;SDS011;8434;47.990;7.880;2023-07-28T05:40:06;2.08;;;1.65;;
16640;SDS011;8434;47.990;7.880;2023-07-28T05:42:53;2.03;;;1.55;;
16640;SDS011;8434;47.990;7.880;2023-07-28T05:45:39;2.55;;;1.77;;
16640;SDS011;8434;47.990;7.880;2023-07-28T05:48:30;4.38;;;1.95;;
16640;SDS011;8434;47.990;7.880;2023-07-28T05:51:16;3.97;;;1.73;;
16640;SDS011;8434;47.990;7.880;2023-07-28T05:54:02;1.92;;;1.73;;
16640;SDS011;8434;47.990;7.880;2023-07-28T05:56:48;2.28;;;1.70;;
16640;SDS011;8434;47.990;7.880;2023-07-28T05:59:34;2.80;;;1.60;;
16640;SDS011;8434;47.990;7.880;2023-07-28T06:02:19;2.60;;;1.90;;
16640;SDS011;8434;47.990;7.880;2023-07-28T06:05:09;2.17;;;1.60;;
16640;SDS011;8434;47.990;7.880;2023-07-28T06:07:55;2.97;;;1.80;;
16640;SDS011;8434;47.990;7.880;2023-07-28T06:10:41;2.05;;;1.77;;
16640;SDS011;8434;47.990;7.880;2023-07-28T06:13:27;3.58;;;1.75;;
16640;SDS011;8434;47.990;7.880;2023-07-28T06:16:14;2.85;;;1.98;;
16640;SDS011;8434;47.990;7.880;2023-07-28T06:19:00;2.17;;;1.52;;
16640;SDS011;8434;47.990;7.880;2023-07-28T06:21:45;1.67;;;1.40;;
16640;SDS011;8434;47.990;7.880;2023-07-28T06:24:30;3.40;;;2.10;;
16640;SDS011;8434;47.990;7.880;2023-07-28T06:27:18;2.20;;;1.75;;
16640;SDS011;8434;47.990;7.880;2023-07-28T06:30:05;4.95;;;2.22;;
16640;SDS011;8434;47.990;7.880;2023-07-28T06:32:54;3.85;;;2.00;;
16640;SDS011;8434;47.990;7.880;2023-07-28T06:35:40;2.58;;;1.92;;
16640;SDS011;8434;47.990;7.880;2023-07-28T06:38:26;2.10;;;1.90;;
16640;SDS011;8434;47.990;7.880;2023-07-28T06:41:11;2.45;;;2.05;;
16640;SDS011;8434;47.990;7.880;2023-07-28T06:43:57;4.00;;;2.10;;
16640;SDS011;8434;47.990;7.880;2023-07-28T06:46:44;2.28;;;1.95;;
16640;SDS011;8434;47.990;7.880;2023-07-28T06:49:30;2.13;;;1.80;;
16640;SDS011;8434;47.990;7.880;2023-07-28T06:52:15;3.50;;;1.95;;
16640;SDS011;8434;47.990;7.880;2023-07-28T06:55:02;2.95;;;2.28;;
16640;SDS011;8434;47.990;7.880;2023-07-28T06:57:47;2.33;;;1.90;;
16640;SDS011;8434;47.990;7.880;2023-07-28T07:00:34;2.67;;;1.80;;
16640;SDS011;8434;47.990;7.880;2023-07-28T07:03:21;2.20;;;1.92;;
16640;SDS011;8434;47.990;7.880;2023-07-28T07:06:07;2.70;;;2.20;;
16640;SDS011;8434;47.990;7.880;2023-07-28T07:08:53;3.50;;;1.90;;
16640;SDS011;8434;47.990;7.880;2023-07-28T07:11:38;2.45;;;2.10;;
16640;SDS011;8434;47.990;7.880;2023-07-28T07:14:23;4.78;;;2.35;;
16640;SDS011;8434;47.990;7.880;2023-07-28T07:17:09;3.40;;;2.53;;
16640;SDS011;8434;47.990;7.880;2023-07-28T07:19:56;4.25;;;2.33;;
16640;SDS011;8434;47.990;7.880;2023-07-28T07:22:41;2.45;;;2.20;;
16640;SDS011;8434;47.990;7.880;2023-07-28T07:25:27;3.78;;;2.20;;
16640;SDS011;8434;47.990;7.880;2023-07-28T07:28:13;3.15;;;2.20;;
16640;SDS011;8434;47.990;7.880;2023-07-28T07:34:09;3.83;;;2.85;;
16640;SDS011;8434;47.990;7.880;2023-07-28T07:37:00;3.45;;;2.42;;
16640;SDS011;8434;47.990;7.880;2023-07-28T07:39:46;3.38;;;2.20;;
16640;SDS011;8434;47.990;7.880;2023-07-28T07:42:39;2.88;;;2.30;;
16640;SDS011;8434;47.990;7.880;2023-07-28T07:45:25;3.70;;;2.38;;
16640;SDS011;8434;47.990;7.880;2023-07-28T07:48:11;2.05;;;1.90;;
16640;SDS011;8434;47.990;7.880;2023-07-28T07:50:56;2.53;;;2.30;;
16640;SDS011;8434;47.990;7.880;2023-07-28T07:53:43;2.92;;;2.35;;
16640;SDS011;8434;47.990;7.880;2023-07-28T07:56:28;3.13;;;2.40;;
16640;SDS011;8434;47.990;7.880;2023-07-28T07:59:14;2.70;;;1.98;;
16640;SDS011;8434;47.990;7.880;2023-07-28T08:01:59;2.95;;;2.20;;
16640;SDS011;8434;47.990;7.880;2023-07-28T08:04:47;2.67;;;1.73;;
16640;SDS011;8434;47.990;7.880;2023-07-28T08:07:32;2.78;;;1.92;;
16640;SDS011;8434;47.990;7.880;2023-07-28T08:10:19;1.92;;;1.80;;
16640;SDS011;8434;47.990;7.880;2023-07-28T08:13:05;1.85;;;1.75;;
16640;SDS011;8434;47.990;7.880;2023-07-28T08:15:50;2.72;;;2.30;;
16640;SDS011;8434;47.990;7.880;2023-07-28T08:18:36;4.32;;;2.10;;
16640;SDS011;8434;47.990;7.880;2023-07-28T08:21:21;3.10;;;2.10;;
16640;SDS011;8434;47.990;7.880;2023-07-28T08:24:07;4.45;;;1.90;;
16640;SDS011;8434;47.990;7.880;2023-07-28T08:26:55;4.90;;;2.25;;
16640;SDS011;8434;47.990;7.880;2023-07-28T08:29:40;3.47;;;1.85;;
16640;SDS011;8434;47.990;7.880;2023-07-28T08:32:26;2.45;;;2.10;;
16640;SDS011;8434;47.990;7.880;2023-07-28T08:35:24;2.65;;;1.83;;
16640;SDS011;8434;47.990;7.880;2023-07-28T08:38:10;2.20;;;1.70;;
16640;SDS011;8434;47.990;7.880;2023-07-28T08:40:56;3.03;;;2.00;;
16640;SDS011;8434;47.990;7.880;2023-07-28T08:47:43;3.67;;;1.63;;
16640;SDS011;8434;47.990;7.880;2023-07-28T08:50:28;2.42;;;2.10;;
16640;SDS011;8434;47.990;7.880;2023-07-28T08:53:14;1.80;;;1.67;;
16640;SDS011;8434;47.990;7.880;2023-07-28T08:55:59;1.70;;;1.60;;
16640;SDS011;8434;47.990;7.880;2023-07-28T08:58:45;2.08;;;1.60;;
16640;SDS011;8434;47.990;7.880;2023-07-28T09:01:30;2.58;;;2.05;;
16640;SDS011;8434;47.990;7.880;2023-07-28T09:04:17;5.05;;;1.98;;
16640;SDS011;8434;47.990;7.880;2023-07-28T09:07:04;3.33;;;2.10;;
16640;SDS011;8434;47.990;7.880;2023-07-28T09:09:49;3.42;;;2.08;;
16640;SDS011;8434;47.990;7.880;2023-07-28T09:12:37;2.53;;;2.05;;
16640;SDS011;8434;47.990;7.880;2023-07-28T09:15:29;2.47;;;2.00;;
16640;SDS011;8434;47.990;7.880;2023-07-28T09:18:20;1.70;;;1.55;;
16640;SDS011;8434;47.990;7.880;2023-07-28T09:21:17;3.15;;;2.20;;
16640;SDS011;8434;47.990;7.880;2023-07-28T09:24:03;3.33;;;2.45;;
16640;SDS011;8434;47.990;7.880;2023-07-28T09:26:50;2.60;;;2.10;;
16640;SDS011;8434;47.990;7.880;2023-07-28T09:29:35;2.22;;;1.95;;
16640;SDS011;8434;47.990;7.880;2023-07-28T09:32:31;3.92;;;2.13;;
16640;SDS011;8434;47.990;7.880;2023-07-28T09:35:17;4.03;;;2.28;;
16640;SDS011;8434;47.990;7.880;2023-07-28T09:38:04;2.30;;;2.00;;
16640;SDS011;8434;47.990;7.880;2023-07-28T09:40:50;2.58;;;1.75;;
16640;SDS011;8434;47.990;7.880;2023-07-28T09:43:36;2.83;;;2.17;;
16640;SDS011;8434;47.990;7.880;2023-07-28T09:46:21;2.17;;;1.85;;
16640;SDS011;8434;47.990;7.880;2023-07-28T09:49:09;2.13;;;1.80;;
16640;SDS011;8434;47.990;7.880;2023-07-28T09:51:58;3.85;;;2.30;;
16640;SDS011;8434;47.990;7.880;2023-07-28T09:54:46;2.95;;;2.33;;
16640;SDS011;8434;47.990;7.880;2023-07-28T09:57:35;4.07;;;2.13;;
16640;SDS011;8434;47.990;7.880;2023-07-28T10:00:21;2.50;;;2.08;;
16640;SDS011;8434;47.990;7.880;2023-07-28T10:03:07;2.33;;;2.13;;
16640;SDS011;8434;47.990;7.880;2023-07-28T10:05:53;3.00;;;2.05;;
16640;SDS011;8434;47.990;7.880;2023-07-28T10:08:38;2.40;;;1.90;;
16640;SDS011;8434;47.990;7.880;2023-07-28T10:11:26;2.22;;;2.03;;
16640;SDS011;8434;47.990;7.880;2023-07-28T10:14:12;2.53;;;2.30;;
16640;SDS011;8434;47.990;7.880;2023-07-28T10:17:13;2.65;;;1.90;;
16640;SDS011;8434;47.990;7.880;2023-07-28T10:20:01;3.78;;;2.10;;
16640;SDS011;8434;47.990;7.880;2023-07-28T10:22:52;4.20;;;2.10;;
16640;SDS011;8434;47.990;7.880;2023-07-28T10:25:38;4.00;;;2.28;;
16640;SDS011;8434;47.990;7.880;2023-07-28T10:28:26;3.22;;;2.20;;
16640;SDS011;8434;47.990;7.880;2023-07-28T10:31:12;2.45;;;1.92;;
16640;SDS011;8434;47.990;7.880;2023-07-28T10:33:58;2.42;;;1.80;;
16640;SDS011;8434;47.990;7.880;2023-07-28T10:36:43;2.90;;;2.20;;
16640;SDS011;8434;47.990;7.880;2023-07-28T10:39:29;3.25;;;1.98;;
16640;SDS011;8434;47.990;7.880;2023-07-28T10:42:16;4.38;;;2.45;;
16640;SDS011;8434;47.990;7.880;2023-07-28T10:45:03;2.10;;;1.90;;
16640;SDS011;8434;47.990;7.880;2023-07-28T10:47:48;3.08;;;1.95;;
16640;SDS011;8434;47.990;7.880;2023-07-28T10:50:34;5.80;;;2.20;;
16640;SDS011;8434;47.990;7.880;2023-07-28T10:53:19;2.67;;;2.22;;
16640;SDS011;8434;47.990;7.880;2023-07-28T10:56:04;3.20;;;2.20;;
16640;SDS011;8434;47.990;7.880;2023-07-28T10:58:56;2.22;;;2.03;;
16640;SDS011;8434;47.990;7.880;2023-07-28T11:01:43;2.90;;;2.00;;
16640;SDS011;8434;47.990;7.880;2023-07-28T11:04:29;2.10;;;1.90;;
16640;SDS011;8434;47.990;7.880;2023-07-28T11:07:14;3.53;;;2.40;;
16640;SDS011;8434;47.990;7.880;2023-07-28T11:10:00;2.40;;;2.20;;
16640;SDS011;8434;47.990;7.880;2023-07-28T11:12:47;3.72;;;2.38;;
16640;SDS011;8434;47.990;7.880;2023-07-28T11:15:32;2.80;;;2.53;;
16640;SDS011;8434;47.990;7.880;2023-07-28T11:18:19;2.65;;;2.35;;
16640;SDS011;8434;47.990;7.880;2023-07-28T11:21:05;2.83;;;2.50;;
16640;SDS011;8434;47.990;7.880;2023-07-28T11:23:50;4.07;;;2.42;;
16640;SDS011;8434;47.990;7.880;2023-07-28T11:26:40;3.58;;;2.45;;
16640;SDS011;8434;47.990;7.880;2023-07-28T11:29:25;4.05;;;2.28;;
16640;SDS011;8434;47.990;7.880;2023-07-28T11:32:12;2.55;;;2.20;;
16640;SDS011;8434;47.990;7.880;2023-07-28T11:35:03;3.28;;;2.25;;
16640;SDS011;8434;47.990;7.880;2023-07-28T11:37:50;6.22;;;3.05;;
16640;SDS011;8434;47.990;7.880;2023-07-28T11:40:36;4.63;;;2.50;;
16640;SDS011;8434;47.990;7.880;2023-07-28T11:43:22;3.85;;;2.63;;
16640;SDS011;8434;47.990;7.880;2023-07-28T11:49:10;3.28;;;2.33;;
16640;SDS011;8434;47.990;7.880;2023-07-28T11:52:02;2.80;;;2.33;;
16640;SDS011;8434;47.990;7.880;2023-07-28T11:54:50;3.47;;;2.60;;
16640;SDS011;8434;47.990;7.880;2023-07-28T11:57:36;5.15;;;2.67;;
16640;SDS011;8434;47.990;7.880;2023-07-28T12:00:28;2.88;;;2.58;;
16640;SDS011;8434;47.990;7.880;2023-07-28T12:03:14;3.97;;;2.35;;
16640;SDS011;8434;47.990;7.880;2023-07-28T12:06:03;4.85;;;3.03;;
16640;SDS011;8434;47.990;7.880;2023-07-28T12:08:50;2.70;;;2.50;;
16640;SDS011;8434;47.990;7.880;2023-07-28T12:11:36;2.60;;;2.35;;
16640;SDS011;8434;47.990;7.880;2023-07-28T12:14:30;3.22;;;2.90;;
16640;SDS011;8434;47.990;7.880;2023-07-28T12:17:15;3.85;;;2.97;;
16640;SDS011;8434;47.990;7.880;2023-07-28T12:20:02;2.90;;;2.70;;
16640;SDS011;8434;47.990;7.880;2023-07-28T12:22:54;3.05;;;2.80;;
16640;SDS011;8434;47.990;7.880;2023-07-28T12:25:41;5.00;;;3.85;;
16640;SDS011;8434;47.990;7.880;2023-07-28T12:28:26;3.95;;;3.00;;
16640;SDS011;8434;47.990;7.880;2023-07-28T12:31:12;4.32;;;3.17;;
16640;SDS011;8434;47.990;7.880;2023-07-28T12:33:57;3.38;;;2.90;;
16640;SDS011;8434;47.990;7.880;2023-07-28T12:36:43;3.88;;;3.00;;
16640;SDS011;8434;47.990;7.880;2023-07-28T12:39:28;3.47;;;2.72;;
16640;SDS011;8434;47.990;7.880;2023-07-28T12:42:15;4.57;;;3.00;;
16640;SDS011;8434;47.990;7.880;2023-07-28T12:45:01;3.65;;;2.97;;
16640;SDS011;8434;47.990;7.880;2023-07-28T12:47:47;3.10;;;2.80;;
16640;SDS011;8434;47.990;7.880;2023-07-28T12:50:32;3.65;;;3.25;;
16640;SDS011;8434;47.990;7.880;2023-07-28T12:53:18;3.05;;;2.67;;
16640;SDS011;8434;47.990;7.880;2023-07-28T12:56:03;3.05;;;2.67;;
16640;SDS011;8434;47.990;7.880;2023-07-28T12:58:50;3.22;;;2.92;;
16640;SDS011;8434;47.990;7.880;2023-07-28T13:01:36;3.63;;;2.90;;
16640;SDS011;8434;47.990;7.880;2023-07-28T13:04:22;3.20;;;2.85;;
16640;SDS011;8434;47.990;7.880;2023-07-28T13:07:08;3.10;;;2.80;;
16640;SDS011;8434;47.990;7.880;2023-07-28T13:09:53;5.18;;;3.05;;
16640;SDS011;8434;47.990;7.880;2023-07-28T13:12:39;3.13;;;2.45;;
16640;SDS011;8434;47.990;7.880;2023-07-28T13:15:26;3.17;;;2.75;;
16640;SDS011;8434;47.990;7.880;2023-07-28T13:18:11;2.60;;;2.40;;
16640;SDS011;8434;47.990;7.880;2023-07-28T13:20:57;3.63;;;2.17;;
16640;SDS011;8434;47.990;7.880;2023-07-28T13:23:42;2.33;;;1.92;;
16640;SDS011;8434;47.990;7.880;2023-07-28T13:26:28;2.10;;;1.90;;
16640;SDS011;8434;47.990;7.880;2023-07-28T13:29:13;2.03;;;1.83;;
16640;SDS011;8434;47.990;7.880;2023-07-28T13:32:00;3.10;;;2.40;;
16640;SDS011;8434;47.990;7.880;2023-07-28T13:34:50;4.15;;;2.80;;
16640;SDS011;8434;47.990;7.880;2023-07-28T13:37:51;2.53;;;2.33;;
16640;SDS011;8434;47.990;7.880;2023-07-28T13:40:36;2.38;;;2.17;;
16640;SDS011;8434;47.990;7.880;2023-07-28T13:43:41;2.28;;;2.08;;
16640;SDS011;8434;47.990;7.880;2023-07-28T13:46:26;2.15;;;1.95;;
16640;SDS011;8434;47.990;7.880;2023-07-28T13:49:13;3.65;;;1.80;;
16640;SDS011;8434;47.990;7.880;2023-07-28T13:51:59;1.83;;;1.63;;
16640;SDS011;8434;47.990;7.880;2023-07-28T13:54:44;2.63;;;1.33;;
16640;SDS011;8434;47.990;7.880;2023-07-28T13:57:30;1.90;;;1.63;;
16640;SDS011;8434;47.990;7.880;2023-07-28T14:00:15;1.80;;;1.65;;
16640;SDS011;8434;47.990;7.880;2023-07-28T14:03:01;1.73;;;1.63;;
16640;SDS011;8434;47.990;7.880;2023-07-28T14:05:48;1.90;;;1.70;;
16640;SDS011;8434;47.990;7.880;2023-07-28T14:08:34;2.03;;;1.80;;
16640;SDS011;8434;47.990;7.880;2023-07-28T14:11:19;3.20;;;1.50;;
16640;SDS011;8434;47.990;7.880;2023-07-28T14:14:05;2.05;;;1.80;;
16640;SDS011;8434;47.990;7.880;2023-07-28T14:16:50;2.58;;;1.60;;
16640;SDS011;8434;47.990;7.880;2023-07-28T14:19:37;2.17;;;1.52;;
16640;SDS011;8434;47.990;7.880;2023-07-28T14:22:24;3.22;;;1.60;;
16640;SDS011;8434;47.990;7.880;2023-07-28T14:25:10;2.65;;;1.67;;
16640;SDS011;8434;47.990;7.880;2023-07-28T14:27:55;3.00;;;1.60;;
16640;SDS011;8434;47.990;7.880;2023-07-28T14:30:41;3.28;;;1.60;;
16640;SDS011;8434;47.990;7.880;2023-07-28T14:33:30;1.70;;;1.50;;
16640;SDS011;8434;47.990;7.880;2023-07-28T14:36:15;1.60;;;1.50;;
16640;SDS011;8434;47.990;7.880;2023-07-28T14:39:02;1.85;;;1.55;;
16640;SDS011;8434;47.990;7.880;2023-07-28T14:41:48;1.52;;;1.35;;
16640;SDS011;8434;47.990;7.880;2023-07-28T14:44:33;1.75;;;1.27;;
16640;SDS011;8434;47.990;7.880;2023-07-28T14:47:18;1.90;;;1.25;;
16640;SDS011;8434;47.990;7.880;2023-07-28T14:50:05;1.60;;;1.10;;
16640;SDS011;8434;47.990;7.880;2023-07-28T14:52:57;1.60;;;1.50;;
16640;SDS011;8434;47.990;7.880;2023-07-28T14:55:44;1.45;;;1.30;;
16640;SDS011;8434;47.990;7.880;2023-07-28T14:58:29;1.73;;;1.52;;
16640;SDS011;8434;47.990;7.880;2023-07-28T15:01:14;2.10;;;1.50;;
16640;SDS011;8434;47.990;7.880;2023-07-28T15:04:00;1.60;;;1.50;;
16640;SDS011;8434;47.990;7.880;2023-07-28T15:06:46;1.75;;;1.52;;
16640;SDS011;8434;47.990;7.880;2023-07-28T15:09:31;2.33;;;1.50;;
16640;SDS011;8434;47.990;7.880;2023-07-28T15:12:18;1.95;;;1.63;;
16640;SDS011;8434;47.990;7.880;2023-07-28T15:15:04;2.15;;;1.70;;
16640;SDS011;8434;47.990;7.880;2023-07-28T15:17:49;2.63;;;1.63;;
16640;SDS011;8434;47.990;7.880;2023-07-28T15:20:35;2.10;;;1.70;;
16640;SDS011;8434;47.990;7.880;2023-07-28T15:23:21;2.50;;;1.45;;
16640;SDS011;8434;47.990;7.880;2023-07-28T15:26:06;3.35;;;1.98;;
16640;SDS011;8434;47.990;7.880;2023-07-28T15:28:54;2.13;;;1.88;;
16640;SDS011;8434;47.990;7.880;2023-07-28T15:31:41;3.55;;;1.75;;
16640;SDS011;8434;47.990;7.880;2023-07-28T15:34:26;3.40;;;1.80;;
16640;SDS011;8434;47.990;7.880;2023-07-28T15:37:12;3.10;;;1.92;;
16640;SDS011;8434;47.990;7.880;2023-07-28T15:39:58;2.33;;;1.77;;
16640;SDS011;8434;47.990;7.880;2023-07-28T15:42:43;4.57;;;2.00;;
16640;SDS011;8434;47.990;7.880;2023-07-28T15:45:30;4.75;;;2.33;;
16640;SDS011;8434;47.990;7.880;2023-07-28T15:48:15;5.13;;;2.85;;
16640;SDS011;8434;47.990;7.880;2023-07-28T15:51:01;2.90;;;2.60;;
16640;SDS011;8434;47.990;7.880;2023-07-28T15:53:48;3.80;;;3.15;;
16640;SDS011;8434;47.990;7.880;2023-07-28T15:56:33;5.35;;;2.80;;
16640;SDS011;8434;47.990;7.880;2023-07-28T15:59:19;4.27;;;2.60;;
16640;SDS011;8434;47.990;7.880;2023-07-28T16:02:05;3.20;;;2.30;;
16640;SDS011;8434;47.990;7.880;2023-07-28T16:04:51;2.80;;;2.33;;
16640;SDS011;8434;47.990;7.880;2023-07-28T16:07:36;4.17;;;2.40;;
16640;SDS011;8434;47.990;7.880;2023-07-28T16:10:22;4.00;;;2.25;;
16640;SDS011;8434;47.990;7.880;2023-07-28T16:13:07;2.50;;;1.90;;
16640;SDS011;8434;47.990;7.880;2023-07-28T16:15:53;3.17;;;1.80;;
16640;SDS011;8434;47.990;7.880;2023-07-28T16:18:39;4.07;;;2.23;;
16640;SDS011;8434;47.990;7.880;2023-07-28T16:21:24;3.90;;;2.10;;
16640;SDS011;8434;47.990;7.880;2023-07-28T16:24:10;3.00;;;1.90;;
16640;SDS011;8434;47.990;7.880;2023-07-28T16:26:55;3.60;;;2.08;;
16640;SDS011;8434;47.990;7.880;2023-07-28T16:29:41;4.53;;;2.30;;
16640;SDS011;8434;47.990;7.880;2023-07-28T16:32:26;3.00;;;1.75;;
16640;SDS011;8434;47.990;7.880;2023-07-28T16:35:14;3.85;;;2.20;;
16640;SDS011;8434;47.990;7.880;2023-07-28T16:37:59;2.08;;;1.88;;
16640;SDS011;8434;47.990;7.880;2023-07-28T16:40:45;2.00;;;1.70;;
16640;SDS011;8434;47.990;7.880;2023-07-28T16:43:30;5.28;;;2.17;;
16640;SDS011;8434;47.990;7.880;2023-07-28T16:46:16;2.13;;;1.60;;
16640;SDS011;8434;47.990;7.880;2023-07-28T16:49:01;3.00;;;1.80;;
16640;SDS011;8434;47.990;7.880;2023-07-28T16:51:48;2.35;;;1.65;;
16640;SDS011;8434;47.990;7.880;2023-07-28T16:54:34;3.28;;;1.77;;
16640;SDS011;8434;47.990;7.880;2023-07-28T16:57:19;2.33;;;2.13;;
16640;SDS011;8434;47.990;7.880;2023-07-28T17:00:05;3.85;;;1.85;;
16640;SDS011;8434;47.990;7.880;2023-07-28T17:02:50;3.13;;;2.03;;
16640;SDS011;8434;47.990;7.880;2023-07-28T17:05:36;4.32;;;2.22;;
16640;SDS011;8434;47.990;7.880;2023-07-28T17:08:23;2.97;;;1.95;;
16640;SDS011;8434;47.990;7.880;2023-07-28T17:11:08;1.70;;;1.50;;